sensor_id;sensor_type;location;lat;lon;timestamp;pressure;altitude;pressure_sealevel;temperature;humidity
22662;BME280;11497;52.222;21.246;2023-03-21T00:00:52;100196.16;;;8.19;100.00
22662;BME280;11497;52.222;21.246;2023-03-21T00:03:24;100194.69;;;8.09;100.00
22662;BME280;11497;52.222;21.246;2023-03-21T00:05:53;100194.63;;;8.11;100.00
22662;BME280;11497;52.222;21.246;2023-03-21T00:08:23;100190.25;;;8.13;100.00
22662;BME280;11497;52.222;21.246;2023-03-21T00:10:58;100182.22;;;8.20;100.00
22662;BME280;11497;52.222;21.246;2023-03-21T00:13:28;100193.31;;;8.27;100.00
22662;BME280;11497;52.222;21.246;2023-03-21T00:16:12;100191.19;;;8.43;100.00
22662;BME280;11497;52.222;21.246;2023-03-21T00:19:01;100181.56;;;8.45;100.00
22662;BME280;11497;52.222;21.246;2023-03-21T00:21:33;100177.25;;;8.44;100.00
22662;BME280;11497;52.222;21.246;2023-03-21T00:24:22;100178.31;;;8.37;100.00
22662;BME280;11497;52.222;21.246;2023-03-21T00:26:50;100177.38;;;8.39;100.00
22662;BME280;11497;52.222;21.246;2023-03-21T00:29:19;100174.03;;;8.34;100.00
22662;BME280;11497;52.222;21.246;2023-03-21T00:31:46;100178.31;;;8.37;100.00
22662;BME280;11497;52.222;21.246;2023-03-21T00:34:14;100166.53;;;8.22;100.00
22662;BME280;11497;52.222;21.246;2023-03-21T00:36:49;100166.00;;;8.42;100.00
22662;BME280;11497;52.222;21.246;2023-03-21T00:39:17;100170.44;;;8.38;100.00
22662;BME280;11497;52.222;21.246;2023-03-21T00:41:45;100173.94;;;8.37;100.00
22662;BME280;11497;52.222;21.246;2023-03-21T00:44:13;100172.28;;;8.34;100.00
22662;BME280;11497;52.222;21.246;2023-03-21T00:46:42;100173.91;;;8.39;100.00
22662;BME280;11497;52.222;21.246;2023-03-21T00:49:27;100172.16;;;8.39;100.00
22662;BME280;11497;52.222;21.246;2023-03-21T00:52:04;100170.16;;;8.49;100.00
22662;BME280;11497;52.222;21.246;2023-03-21T00:54:51;100179.94;;;8.41;100.00
22662;BME280;11497;52.222;21.246;2023-03-21T00:57:18;100175.53;;;8.43;100.00
22662;BME280;11497;52.222;21.246;2023-03-21T00:59:53;100172.75;;;8.49;100.00
22662;BME280;11497;52.222;21.246;2023-03-21T01:02:21;100167.63;;;8.46;100.00
22662;BME280;11497;52.222;21.246;2023-03-21T01:04:49;100169.34;;;8.47;100.00
22662;BME280;11497;52.222;21.246;2023-03-21T01:07:17;100170.88;;;8.54;100.00
22662;BME280;11497;52.222;21.246;2023-03-21T01:09:45;100167.28;;;8.58;100.00
22662;BME280;11497;52.222;21.246;2023-03-21T01:12:13;100165.75;;;8.51;100.00
22662;BME280;11497;52.222;21.246;2023-03-21T01:14:41;100163.97;;;8.53;100.00
22662;BME280;11497;52.222;21.246;2023-03-21T01:17:08;100174.47;;;8.50;100.00
22662;BME280;11497;52.222;21.246;2023-03-21T01:19:36;100167.53;;;8.49;100.00
22662;BME280;11497;52.222;21.246;2023-03-21T01:22:17;100170.78;;;8.57;100.00
22662;BME280;11497;52.222;21.246;2023-03-21T01:24:45;100165.63;;;8.55;100.00
22662;BME280;11497;52.222;21.246;2023-03-21T01:27:23;100167.47;;;8.52;100.00
22662;BME280;11497;52.222;21.246;2023-03-21T01:29:51;100160.44;;;8.54;100.00
22662;BME280;11497;52.222;21.246;2023-03-21T01:32:19;100157.06;;;8.50;100.00
22662;BME280;11497;52.222;21.246;2023-03-21T01:34:47;100164.00;;;8.51;100.00
22662;BME280;11497;52.222;21.246;2023-03-21T01:37:14;100160.63;;;8.48;100.00
22662;BME280;11497;52.222;21.246;2023-03-21T01:39:48;100156.13;;;8.53;100.00
22662;BME280;11497;52.222;21.246;2023-03-21T01:42:16;100162.16;;;8.55;100.00
22662;BME280;11497;52.222;21.246;2023-03-21T01:45:01;100155.56;;;8.42;100.00
22662;BME280;11497;52.222;21.246;2023-03-21T01:47:41;100156.59;;;8.36;100.00
22662;BME280;11497;52.222;21.246;2023-03-21T01:50:19;100160.78;;;8.42;100.00
22662;BME280;11497;52.222;21.246;2023-03-21T01:53:14;100160.72;;;8.45;100.00
22662;BME280;11497;52.222;21.246;2023-03-21T01:55:43;100159.06;;;8.41;100.00
22662;BME280;11497;52.222;21.246;2023-03-21T01:58:31;100151.97;;;8.46;100.00
22662;BME280;11497;52.222;21.246;2023-03-21T02:01:10;100145.31;;;8.36;100.00
22662;BME280;11497;52.222;21.246;2023-03-21T02:03:45;100144.34;;;8.40;100.00
22662;BME280;11497;52.222;21.246;2023-03-21T02:06:38;100150.59;;;8.32;100.00
22662;BME280;11497;52.222;21.246;2023-03-21T02:09:20;100149.16;;;8.22;100.00
22662;BME280;11497;52.222;21.246;2023-03-21T02:11:49;100151.09;;;8.14;100.00
22662;BME280;11497;52.222;21.246;2023-03-21T02:14:19;100149.41;;;8.13;100.00
22662;BME280;11497;52.222;21.246;2023-03-21T02:17:55;100157.22;;;8.13;100.00
22662;BME280;11497;52.222;21.246;2023-03-21T02:23:47;100146.13;;;8.05;100.00
22662;BME280;11497;52.222;21.246;2023-03-21T02:26:38;100147.25;;;7.95;100.00
22662;BME280;11497;52.222;21.246;2023-03-21T02:35:40;100148.50;;;8.14;100.00
22662;BME280;11497;52.222;21.246;2023-03-21T02:38:31;100140.22;;;7.98;100.00
22662;BME280;11497;52.222;21.246;2023-03-21T02:41:11;100147.22;;;7.96;100.00
22662;BME280;11497;52.222;21.246;2023-03-21T02:44:16;100142.78;;;8.00;100.00
22662;BME280;11497;52.222;21.246;2023-03-21T02:46:55;100149.63;;;8.04;100.00
22662;BME280;11497;52.222;21.246;2023-03-21T02:49:36;100153.84;;;8.10;100.00
22662;BME280;11497;52.222;21.246;2023-03-21T02:52:17;100151.25;;;8.08;100.00
22662;BME280;11497;52.222;21.246;2023-03-21T02:55:07;100157.94;;;8.18;100.00
22662;BME280;11497;52.222;21.246;2023-03-21T02:57:49;100155.09;;;8.26;100.00
22662;BME280;11497;52.222;21.246;2023-03-21T03:00:23;100151.91;;;8.49;100.00
22662;BME280;11497;52.222;21.246;2023-03-21T03:02:52;100157.38;;;8.40;100.00
22662;BME280;11497;52.222;21.246;2023-03-21T03:05:42;100151.97;;;8.46;100.00
22662;BME280;11497;52.222;21.246;2023-03-21T03:17:34;100158.06;;;8.46;100.00
22662;BME280;11497;52.222;21.246;2023-03-21T03:23:24;100166.09;;;8.39;100.00
22662;BME280;11497;52.222;21.246;2023-03-21T03:26:02;100167.09;;;8.33;100.00
22662;BME280;11497;52.222;21.246;2023-03-21T03:28:38;100173.88;;;8.40;100.00
22662;BME280;11497;52.222;21.246;2023-03-21T03:31:17;100173.19;;;8.33;100.00
22662;BME280;11497;52.222;21.246;2023-03-21T03:33:55;100171.06;;;8.48;100.00
22662;BME280;11497;52.222;21.246;2023-03-21T03:36:29;100172.84;;;8.46;100.00
22662;BME280;11497;52.222;21.246;2023-03-21T03:39:07;100166.19;;;8.36;100.00
22662;BME280;11497;52.222;21.246;2023-03-21T03:41:53;100163.75;;;8.28;100.00
22662;BME280;11497;52.222;21.246;2023-03-21T03:44:43;100175.69;;;8.37;100.00
22662;BME280;11497;52.222;21.246;2023-03-21T03:47:52;100174.13;;;8.29;100.00
22662;BME280;11497;52.222;21.246;2023-03-21T03:53:27;100171.25;;;8.08;100.00
22662;BME280;11497;52.222;21.246;2023-03-21T03:55:58;100174.72;;;8.08;100.00
22662;BME280;11497;52.222;21.246;2023-03-21T03:58:30;100171.47;;;8.00;100.00
22662;BME280;11497;52.222;21.246;2023-03-21T04:01:12;100168.47;;;8.15;100.00
22662;BME280;11497;52.222;21.246;2023-03-21T04:03:43;100175.63;;;8.07;100.00
22662;BME280;11497;52.222;21.246;2023-03-21T04:06:19;100178.22;;;8.07;100.00
22662;BME280;11497;52.222;21.246;2023-03-21T04:08:50;100172.91;;;8.12;100.00
22662;BME280;11497;52.222;21.246;2023-03-21T04:11:19;100176.28;;;8.15;100.00
22662;BME280;11497;52.222;21.246;2023-03-21T04:13:51;100176.13;;;8.21;100.00
22662;BME280;11497;52.222;21.246;2023-03-21T04:16:21;100176.91;;;8.23;100.00
22662;BME280;11497;52.222;21.246;2023-03-21T04:18:51;100176.91;;;8.23;100.00
22662;BME280;11497;52.222;21.246;2023-03-21T04:21:19;100173.59;;;8.18;100.00
22662;BME280;11497;52.222;21.246;2023-03-21T04:23:48;100175.09;;;8.25;100.00
22662;BME280;11497;52.222;21.246;2023-03-21T04:26:15;100177.00;;;8.20;100.00
22662;BME280;11497;52.222;21.246;2023-03-21T04:28:54;100177.06;;;8.19;100.00
22662;BME280;11497;52.222;21.246;2023-03-21T04:31:44;100173.78;;;8.11;100.00
22662;BME280;11497;52.222;21.246;2023-03-21T04:34:13;100183.44;;;8.07;100.00
22662;BME280;11497;52.222;21.246;2023-03-21T04:36:46;100181.81;;;8.03;100.00
22662;BME280;11497;52.222;21.246;2023-03-21T04:39:15;100178.16;;;8.10;100.00
22662;BME280;11497;52.222;21.246;2023-03-21T04:41:46;100175.41;;;8.15;100.00
22662;BME280;11497;52.222;21.246;2023-03-21T04:44:16;100182.63;;;8.05;100.00
22662;BME280;11497;52.222;21.246;2023-03-21T04:46:44;100182.38;;;8.14;100.00
22662;BME280;11497;52.222;21.246;2023-03-21T04:49:13;100179.03;;;8.09;100.00
22662;BME280;11497;52.222;21.246;2023-03-21T04:51:42;100178.84;;;8.17;100.00
22662;BME280;11497;52.222;21.246;2023-03-21T04:54:14;100185.06;;;8.11;100.00
22662;BME280;11497;52.222;21.246;2023-03-21T04:56:42;100179.28;;;8.00;100.00
22662;BME280;11497;52.222;21.246;2023-03-21T04:59:14;100184.25;;;8.09;100.00
22662;BME280;11497;52.222;21.246;2023-03-21T05:01:43;100183.28;;;8.13;100.00
22662;BME280;11497;52.222;21.246;2023-03-21T05:04:12;100186.69;;;8.15;100.00
22662;BME280;11497;52.222;21.246;2023-03-21T05:06:41;100190.91;;;8.21;100.00
22662;BME280;11497;52.222;21.246;2023-03-21T05:09:10;100187.13;;;8.32;100.00
22662;BME280;11497;52.222;21.246;2023-03-21T05:11:39;100192.22;;;8.37;100.00
22662;BME280;11497;52.222;21.246;2023-03-21T05:14:11;100195.88;;;8.28;100.00
22662;BME280;11497;52.222;21.246;2023-03-21T05:16:42;100198.41;;;8.33;100.00
22662;BME280;11497;52.222;21.246;2023-03-21T05:19:17;100193.72;;;8.46;100.00
22662;BME280;11497;52.222;21.246;2023-03-21T05:21:48;100202.50;;;8.42;100.00
22662;BME280;11497;52.222;21.246;2023-03-21T05:24:21;100192.25;;;8.36;100.00
22662;BME280;11497;52.222;21.246;2023-03-21T05:26:50;100195.75;;;8.34;100.00
22662;BME280;11497;52.222;21.246;2023-03-21T05:29:22;100195.66;;;8.38;100.00
22662;BME280;11497;52.222;21.246;2023-03-21T05:32:05;100193.97;;;8.37;100.00
22662;BME280;11497;52.222;21.246;2023-03-21T05:34:33;100198.16;;;8.42;100.00
22662;BME280;11497;52.222;21.246;2023-03-21T05:37:01;100199.88;;;8.43;100.00
22662;BME280;11497;52.222;21.246;2023-03-21T05:39:43;100201.75;;;8.38;100.00
22662;BME280;11497;52.222;21.246;2023-03-21T05:42:17;100199.25;;;8.33;100.00
22662;BME280;11497;52.222;21.246;2023-03-21T05:44:46;100207.88;;;8.36;100.00
22662;BME280;11497;52.222;21.246;2023-03-21T05:47:15;100213.81;;;8.42;100.00
22662;BME280;11497;52.222;21.246;2023-03-21T05:49:46;100209.81;;;8.27;100.00
22662;BME280;11497;52.222;21.246;2023-03-21T05:52:15;100213.84;;;8.41;100.00
22662;BME280;11497;52.222;21.246;2023-03-21T05:54:45;100216.66;;;8.33;100.00
22662;BME280;11497;52.222;21.246;2023-03-21T05:57:13;100221.81;;;8.34;100.00
22662;BME280;11497;52.222;21.246;2023-03-21T05:59:57;100220.72;;;8.43;100.00
22662;BME280;11497;52.222;21.246;2023-03-21T06:02:26;100222.34;;;8.47;100.00
22662;BME280;11497;52.222;21.246;2023-03-21T06:04:58;100231.94;;;8.47;100.00
22662;BME280;11497;52.222;21.246;2023-03-21T06:07:26;100225.09;;;8.43;100.00
22662;BME280;11497;52.222;21.246;2023-03-21T06:09:55;100234.53;;;8.47;100.00
22662;BME280;11497;52.222;21.246;2023-03-21T06:12:23;100243.78;;;8.24;100.00
22662;BME280;11497;52.222;21.246;2023-03-21T06:15:14;100245.50;;;8.25;100.00
22662;BME280;11497;52.222;21.246;2023-03-21T06:17:52;100246.34;;;8.26;100.00
22662;BME280;11497;52.222;21.246;2023-03-21T06:20:21;100248.72;;;8.37;100.00
22662;BME280;11497;52.222;21.246;2023-03-21T06:22:52;100239.09;;;8.39;100.00
22662;BME280;11497;52.222;21.246;2023-03-21T06:25:20;100249.38;;;8.45;100.00
22662;BME280;11497;52.222;21.246;2023-03-21T06:27:48;100253.03;;;8.38;100.00
22662;BME280;11497;52.222;21.246;2023-03-21T06:30:18;100250.44;;;8.38;100.00
22662;BME280;11497;52.222;21.246;2023-03-21T06:32:59;100251.09;;;8.46;100.00
22662;BME280;11497;52.222;21.246;2023-03-21T06:35:27;100263.47;;;8.38;100.00
22662;BME280;11497;52.222;21.246;2023-03-21T06:37:55;100251.88;;;8.49;100.00
22662;BME280;11497;52.222;21.246;2023-03-21T06:40:27;100254.84;;;8.66;100.00
22662;BME280;11497;52.222;21.246;2023-03-21T06:42:55;100251.25;;;8.71;100.00
22662;BME280;11497;52.222;21.246;2023-03-21T06:45:23;100253.75;;;8.75;100.00
22662;BME280;11497;52.222;21.246;2023-03-21T06:47:52;100254.22;;;8.89;100.00
22662;BME280;11497;52.222;21.246;2023-03-21T06:50:31;100258.19;;;9.03;100.00
22662;BME280;11497;52.222;21.246;2023-03-21T06:52:59;100255.72;;;8.98;100.00
22662;BME280;11497;52.222;21.246;2023-03-21T06:55:29;100260.75;;;9.04;100.00
22662;BME280;11497;52.222;21.246;2023-03-21T06:57:59;100265.31;;;8.97;100.00
22662;BME280;11497;52.222;21.246;2023-03-21T07:00:28;100269.31;;;9.09;100.00
22662;BME280;11497;52.222;21.246;2023-03-21T07:02:56;100261.69;;;9.02;100.00
22662;BME280;11497;52.222;21.246;2023-03-21T07:05:26;100264.13;;;9.08;100.00
22662;BME280;11497;52.222;21.246;2023-03-21T07:07:53;100268.00;;;9.24;100.00
22662;BME280;11497;52.222;21.246;2023-03-21T07:10:23;100264.56;;;9.22;100.00
22662;BME280;11497;52.222;21.246;2023-03-21T07:13:00;100264.44;;;9.26;100.00
22662;BME280;11497;52.222;21.246;2023-03-21T07:15:47;100275.59;;;9.31;100.00
22662;BME280;11497;52.222;21.246;2023-03-21T07:18:15;100277.13;;;9.39;99.53
22662;BME280;11497;52.222;21.246;2023-03-21T07:20:46;100277.81;;;9.45;98.77
22662;BME280;11497;52.222;21.246;2023-03-21T07:23:18;100281.22;;;9.47;98.29
22662;BME280;11497;52.222;21.246;2023-03-21T07:25:48;100279.41;;;9.77;97.53
22662;BME280;11497;52.222;21.246;2023-03-21T07:28:17;100280.53;;;9.68;96.38
22662;BME280;11497;52.222;21.246;2023-03-21T07:30:55;100280.44;;;9.72;96.39
22662;BME280;11497;52.222;21.246;2023-03-21T07:33:23;100289.19;;;9.71;95.85
22662;BME280;11497;52.222;21.246;2023-03-21T07:35:54;100285.88;;;9.65;96.28
22662;BME280;11497;52.222;21.246;2023-03-21T07:38:25;100283.91;;;9.72;96.49
22662;BME280;11497;52.222;21.246;2023-03-21T07:40:53;100288.06;;;9.79;96.09
22662;BME280;11497;52.222;21.246;2023-03-21T07:43:22;100277.13;;;9.66;95.68
22662;BME280;11497;52.222;21.246;2023-03-21T07:45:56;100283.97;;;9.71;95.67
22662;BME280;11497;52.222;21.246;2023-03-21T07:48:26;100279.44;;;10.02;95.79
22662;BME280;11497;52.222;21.246;2023-03-21T07:50:55;100278.72;;;10.25;94.77
22662;BME280;11497;52.222;21.246;2023-03-21T07:53:22;100278.53;;;10.56;94.55
22662;BME280;11497;52.222;21.246;2023-03-21T07:55:51;100284.13;;;10.70;93.13
22662;BME280;11497;52.222;21.246;2023-03-21T07:58:19;100288.19;;;10.79;92.24
22662;BME280;11497;52.222;21.246;2023-03-21T08:00:47;100287.03;;;10.86;91.09
22662;BME280;11497;52.222;21.246;2023-03-21T08:03:15;100293.31;;;10.57;89.14
22662;BME280;11497;52.222;21.246;2023-03-21T08:05:43;100292.47;;;10.56;89.47
22662;BME280;11497;52.222;21.246;2023-03-21T08:08:11;100293.25;;;10.83;89.46
22662;BME280;11497;52.222;21.246;2023-03-21T08:10:42;100296.94;;;11.26;88.21
22662;BME280;11497;52.222;21.246;2023-03-21T08:13:11;100302.13;;;11.49;86.55
22662;BME280;11497;52.222;21.246;2023-03-21T08:15:39;100295.66;;;12.23;85.20
22662;BME280;11497;52.222;21.246;2023-03-21T08:18:09;100309.09;;;13.17;82.13
22662;BME280;11497;52.222;21.246;2023-03-21T08:20:38;100296.75;;;13.93;78.00
22662;BME280;11497;52.222;21.246;2023-03-21T08:23:05;100297.91;;;14.23;74.16
22662;BME280;11497;52.222;21.246;2023-03-21T08:25:33;100305.06;;;13.67;72.22
22662;BME280;11497;52.222;21.246;2023-03-21T08:28:03;100305.22;;;13.06;71.25
22662;BME280;11497;52.222;21.246;2023-03-21T08:30:30;100302.47;;;12.49;72.06
22662;BME280;11497;52.222;21.246;2023-03-21T08:32:59;100309.63;;;11.82;73.12
22662;BME280;11497;52.222;21.246;2023-03-21T08:35:29;100315.44;;;11.66;74.96
22662;BME280;11497;52.222;21.246;2023-03-21T08:37:57;100315.44;;;11.66;75.91
22662;BME280;11497;52.222;21.246;2023-03-21T08:40:25;100321.50;;;11.69;76.75
22662;BME280;11497;52.222;21.246;2023-03-21T08:42:53;100313.88;;;11.62;76.75
22662;BME280;11497;52.222;21.246;2023-03-21T08:45:21;100321.81;;;11.83;76.88
22662;BME280;11497;52.222;21.246;2023-03-21T08:47:50;100320.81;;;12.29;76.68
22662;BME280;11497;52.222;21.246;2023-03-21T08:50:20;100319.25;;;12.65;74.24
22662;BME280;11497;52.222;21.246;2023-03-21T08:52:49;100319.06;;;12.90;73.38
22662;BME280;11497;52.222;21.246;2023-03-21T08:55:18;100321.41;;;12.76;71.91
22662;BME280;11497;52.222;21.246;2023-03-21T08:57:46;100323.94;;;13.18;71.05
22662;BME280;11497;52.222;21.246;2023-03-21T09:00:15;100323.75;;;13.60;69.57
22662;BME280;11497;52.222;21.246;2023-03-21T09:02:45;100320.69;;;13.51;68.19
22662;BME280;11497;52.222;21.246;2023-03-21T09:05:15;100322.41;;;13.71;67.87
22662;BME280;11497;52.222;21.246;2023-03-21T09:07:44;100318.25;;;14.37;66.73
22662;BME280;11497;52.222;21.246;2023-03-21T09:10:18;100325.13;;;14.40;65.50
22662;BME280;11497;52.222;21.246;2023-03-21T09:12:52;100331.53;;;14.70;63.32
22662;BME280;11497;52.222;21.246;2023-03-21T09:15:22;100334.28;;;14.32;62.88
22662;BME280;11497;52.222;21.246;2023-03-21T09:17:51;100332.91;;;13.71;63.02
22662;BME280;11497;52.222;21.246;2023-03-21T09:20:22;100337.31;;;12.93;64.55
22662;BME280;11497;52.222;21.246;2023-03-21T09:22:58;100341.63;;;12.74;66.18
22662;BME280;11497;52.222;21.246;2023-03-21T09:25:26;100343.06;;;12.61;67.77
22662;BME280;11497;52.222;21.246;2023-03-21T09:27:58;100348.31;;;12.61;67.97
22662;BME280;11497;52.222;21.246;2023-03-21T09:30:27;100345.56;;;12.64;68.47
22662;BME280;11497;52.222;21.246;2023-03-21T09:32:57;100354.28;;;12.02;68.75
22662;BME280;11497;52.222;21.246;2023-03-21T09:35:26;100356.81;;;11.82;69.97
22662;BME280;11497;52.222;21.246;2023-03-21T09:37:54;100358.53;;;11.83;71.41
22662;BME280;11497;52.222;21.246;2023-03-21T09:46:32;100357.50;;;11.63;72.07
22662;BME280;11497;52.222;21.246;2023-03-21T09:49:12;100357.09;;;11.51;72.78
22662;BME280;11497;52.222;21.246;2023-03-21T09:51:45;100358.06;;;11.48;73.06
22662;BME280;11497;52.222;21.246;2023-03-21T09:54:27;100356.53;;;11.66;72.75
22662;BME280;11497;52.222;21.246;2023-03-21T09:57:00;100363.56;;;11.65;72.57
22662;BME280;11497;52.222;21.246;2023-03-21T09:59:33;100373.47;;;11.57;72.92
22662;BME280;11497;52.222;21.246;2023-03-21T10:02:38;100358.94;;;11.25;73.73
22662;BME280;11497;52.222;21.246;2023-03-21T10:10:27;100356.66;;;10.91;74.88
22662;BME280;11497;52.222;21.246;2023-03-21T10:12:56;100355.66;;;10.95;75.40
22662;BME280;11497;52.222;21.246;2023-03-21T10:15:26;100355.72;;;10.69;75.88
22662;BME280;11497;52.222;21.246;2023-03-21T10:17:58;100353.69;;;10.77;76.57
22662;BME280;11497;52.222;21.246;2023-03-21T10:20:45;100365.22;;;10.96;76.70
22662;BME280;11497;52.222;21.246;2023-03-21T10:23:15;100360.56;;;11.28;77.01
22662;BME280;11497;52.222;21.246;2023-03-21T10:26:10;100356.81;;;11.82;75.93
22662;BME280;11497;52.222;21.246;2023-03-21T10:28:43;100371.28;;;12.14;74.51
22662;BME280;11497;52.222;21.246;2023-03-21T10:31:22;100358.66;;;12.23;72.78
22662;BME280;11497;52.222;21.246;2023-03-21T10:33:59;100363.22;;;12.40;71.42
22662;BME280;11497;52.222;21.246;2023-03-21T10:36:30;100367.69;;;12.79;69.99
22662;BME280;11497;52.222;21.246;2023-03-21T10:39:07;100364.59;;;12.49;69.11
22662;BME280;11497;52.222;21.246;2023-03-21T10:41:40;100366.75;;;12.17;68.95
22662;BME280;11497;52.222;21.246;2023-03-21T10:44:09;100375.44;;;11.74;70.20
22662;BME280;11497;52.222;21.246;2023-03-21T10:46:38;100378.03;;;11.52;72.68
22662;BME280;11497;52.222;21.246;2023-03-21T10:49:16;100379.53;;;11.34;73.49
22662;BME280;11497;52.222;21.246;2023-03-21T10:51:44;100374.03;;;11.19;74.26
22662;BME280;11497;52.222;21.246;2023-03-21T10:54:21;100369.00;;;11.36;75.70
22662;BME280;11497;52.222;21.246;2023-03-21T10:57:18;100388.94;;;12.10;76.24
22662;BME280;11497;52.222;21.246;2023-03-21T10:59:49;100383.25;;;11.99;75.51
22662;BME280;11497;52.222;21.246;2023-03-21T11:02:25;100381.41;;;12.01;75.79
22662;BME280;11497;52.222;21.246;2023-03-21T11:04:55;100379.88;;;12.17;76.57
22662;BME280;11497;52.222;21.246;2023-03-21T11:07:28;100377.31;;;11.94;75.49
22662;BME280;11497;52.222;21.246;2023-03-21T11:10:00;100378.00;;;11.76;74.61
22662;BME280;11497;52.222;21.246;2023-03-21T11:12:47;100378.59;;;11.60;74.18
22662;BME280;11497;52.222;21.246;2023-03-21T11:17:51;100380.19;;;11.41;74.77
22662;BME280;11497;52.222;21.246;2023-03-21T11:20:20;100392.63;;;11.59;76.21
22662;BME280;11497;52.222;21.246;2023-03-21T11:22:48;100382.69;;;11.91;77.66
22662;BME280;11497;52.222;21.246;2023-03-21T11:25:32;100382.56;;;12.16;78.82
22662;BME280;11497;52.222;21.246;2023-03-21T11:28:11;100382.31;;;12.64;78.00
22662;BME280;11497;52.222;21.246;2023-03-21T11:30:57;100377.88;;;12.86;76.25
22662;BME280;11497;52.222;21.246;2023-03-21T11:33:30;100372.88;;;13.21;73.71
22662;BME280;11497;52.222;21.246;2023-03-21T11:36:04;100366.69;;;13.80;71.94
22662;BME280;11497;52.222;21.246;2023-03-21T11:38:36;100371.69;;;14.22;70.39
22662;BME280;11497;52.222;21.246;2023-03-21T11:41:05;100370.84;;;14.03;67.79
22662;BME280;11497;52.222;21.246;2023-03-21T11:43:38;100366.41;;;14.22;67.02
22662;BME280;11497;52.222;21.246;2023-03-21T11:46:12;100365.59;;;14.73;66.38
22662;BME280;11497;52.222;21.246;2023-03-21T11:48:43;100367.78;;;15.00;64.58
22662;BME280;11497;52.222;21.246;2023-03-21T11:54:05;100367.63;;;14.85;63.04
22662;BME280;11497;52.222;21.246;2023-03-21T11:56:48;100366.97;;;15.15;62.35
22662;BME280;11497;52.222;21.246;2023-03-21T12:05:47;100358.53;;;15.08;60.72
22662;BME280;11497;52.222;21.246;2023-03-21T12:10:56;100362.97;;;14.73;60.16
22662;BME280;11497;52.222;21.246;2023-03-21T12:24:19;100355.81;;;14.41;62.34
22662;BME280;11497;52.222;21.246;2023-03-21T12:27:18;100349.13;;;14.52;61.90
22662;BME280;11497;52.222;21.246;2023-03-21T12:30:08;100354.28;;;14.88;62.54
22662;BME280;11497;52.222;21.246;2023-03-21T12:36:05;100347.41;;;14.51;61.08
22662;BME280;11497;52.222;21.246;2023-03-21T12:38:47;100344.16;;;14.63;59.73
22662;BME280;11497;52.222;21.246;2023-03-21T12:41:42;100345.50;;;14.72;59.88
22662;BME280;11497;52.222;21.246;2023-03-21T12:44:09;100341.97;;;14.89;58.76
22662;BME280;11497;52.222;21.246;2023-03-21T12:46:49;100337.69;;;14.86;57.91
22662;BME280;11497;52.222;21.246;2023-03-21T12:49:31;100335.59;;;15.26;57.86
22662;BME280;11497;52.222;21.246;2023-03-21T12:52:11;100339.28;;;15.39;57.01
22662;BME280;11497;52.222;21.246;2023-03-21T12:55:15;100336.69;;;15.22;55.68
22662;BME280;11497;52.222;21.246;2023-03-21T12:57:48;100332.13;;;14.92;55.72
22662;BME280;11497;52.222;21.246;2023-03-21T13:00:41;100344.09;;;14.65;56.39
22662;BME280;11497;52.222;21.246;2023-03-21T13:03:37;100334.69;;;14.25;57.57
22662;BME280;11497;52.222;21.246;2023-03-21T13:06:12;100339.75;;;13.75;57.94
22662;BME280;11497;52.222;21.246;2023-03-21T13:08:49;100340.59;;;13.75;58.82
22662;BME280;11497;52.222;21.246;2023-03-21T13:11:22;100339.88;;;13.34;59.48
22662;BME280;11497;52.222;21.246;2023-03-21T13:14:07;100344.75;;;13.03;60.69
22662;BME280;11497;52.222;21.246;2023-03-21T13:16:59;100331.94;;;13.15;61.14
22662;BME280;11497;52.222;21.246;2023-03-21T13:20:00;100335.19;;;12.81;61.63
22662;BME280;11497;52.222;21.246;2023-03-21T13:22:33;100345.66;;;12.83;61.30
22662;BME280;11497;52.222;21.246;2023-03-21T13:25:14;100335.41;;;12.97;61.03
22662;BME280;11497;52.222;21.246;2023-03-21T13:27:46;100331.84;;;12.98;61.77
22662;BME280;11497;52.222;21.246;2023-03-21T13:30:25;100336.66;;;12.88;62.40
22662;BME280;11497;52.222;21.246;2023-03-21T13:33:13;100331.34;;;12.90;63.09
22662;BME280;11497;52.222;21.246;2023-03-21T13:35:43;100339.50;;;13.03;62.90
22662;BME280;11497;52.222;21.246;2023-03-21T13:41:12;100322.69;;;13.46;62.41
22662;BME280;11497;52.222;21.246;2023-03-21T13:43:52;100332.00;;;13.14;61.62
22662;BME280;11497;52.222;21.246;2023-03-21T14:04:51;100354.66;;;11.46;63.88
22662;BME280;11497;52.222;21.246;2023-03-21T14:07:43;100344.41;;;11.63;64.26
22662;BME280;11497;52.222;21.246;2023-03-21T14:10:33;100351.59;;;11.58;63.80
22662;BME280;11497;52.222;21.246;2023-03-21T14:13:03;100350.44;;;11.65;64.52
22662;BME280;11497;52.222;21.246;2023-03-21T14:15:43;100348.47;;;11.71;64.10
22662;BME280;11497;52.222;21.246;2023-03-21T14:18:25;100353.41;;;11.80;63.94
22662;BME280;11497;52.222;21.246;2023-03-21T14:21:20;100344.38;;;11.87;64.01
22662;BME280;11497;52.222;21.246;2023-03-21T14:23:58;100354.50;;;11.96;63.22
22662;BME280;11497;52.222;21.246;2023-03-21T14:26:29;100350.50;;;12.09;62.24
22662;BME280;11497;52.222;21.246;2023-03-21T14:29:01;100343.88;;;12.21;61.74
22662;BME280;11497;52.222;21.246;2023-03-21T14:31:34;100342.88;;;12.03;61.55
22662;BME280;11497;52.222;21.246;2023-03-21T14:34:03;100345.38;;;12.06;61.00
22662;BME280;11497;52.222;21.246;2023-03-21T14:36:33;100337.50;;;11.61;62.16
22662;BME280;11497;52.222;21.246;2023-03-21T14:41:50;100335.97;;;11.55;63.11
22662;BME280;11497;52.222;21.246;2023-03-21T14:44:20;100333.13;;;11.15;64.06
22662;BME280;11497;52.222;21.246;2023-03-21T14:47:03;100325.13;;;11.19;64.24